Llano, CA

3:46 AM PST on February 07, 2016 (GMT -0800)
Gray Butte Airport (KGXA) | | Change Station
CLOSE
Current Station
Personal Weather Station
Location: Palmdale, CA
Elevation: 3026 ft
Nearby Weather Stations

Elev 3026 ft 34.57 °N, 117.67 °W | Updated 1 minute ago

Clear
Clear
40.8 °F
Feels Like 38 °F
N
4.7
Wind Variable Wind from SSE
Gusts 8.9 mph

Today
High -- | Low -- °F
--% Chance of Precip.
Yesterday
High -- | Low -- °F
Precip. -- in
Pressure 30.37 in
Visibility 10.0 miles
Clouds Clear
Windchill 38 °F
Dew Point 19 °F
Humidity 41%
Rainfall Not available.
Snow Depth Not available.
6:44 AM 5:26 PM
Waning Crescent, 2% visible
METAR KGXA 071055Z AUTO VRB04KT 10SM CLR 02/M08 A3032 RMK AO2 SLP284 WND DATA ESTMD T00231078 TSNO $
Pressure 30.37 in
Visibility 10.0 miles
Clouds Clear
Windchill 38 °F
Dew Point 19 °F
Humidity 41%
Rainfall Not available.
Snow Depth Not available.
6:44 AM 5:26 PM
Waning Crescent, 2% visible
METAR KGXA 071055Z AUTO VRB04KT 10SM CLR 02/M08 A3032 RMK AO2 SLP284 WND DATA ESTMD T00231078 TSNO $

10-Day Weather Forecast

Almanac

Astronomy

Feb. 07, 2016 Rise Set
Actual Time
Civil Twilight
Nautical Twilight
Astronomical Twilight
Moon
Length of Visible Light
Length of Day
Tomorrow will be .
, % of the Moon is Illuminated

Today's Extremes

State Highs State Lows

Community

WunderPhotos

Upload Photos

1,891,182 photos uploaded!

WunderBlog® & News

Nearby

Air Quality

  Air Quality AQ Index Pollutant
Not available.

Snow Depth

Station Depth Elevation

Earthquake Activity

City Distance Mag. Time & Date
Minimum magnitude displayed is 2.5.

Coastal Water Temperatures

Place Temperature

Stations

Nearby Weather Stations

Station Location Temp. Windchill Dew Point Humidity Wind Precip. Elev Updated Type
                   

Watches & Warnings

There are currently no watches in effect.